Knobel, Arkansas
Current Conditions -  °F | °C
As of 5:55 AM on Friday 19 Dec 2014 (Local Time) from K4M9 Reporting Station
Haze Haze  
Wind Chill: 29°   Ceiling: 4100
Heat Index: 36°   Visibility: 5mi
Dew Point: 34°   Wind: 9mph
Humidity: 93%   Direction: 40°NE
Pressure: 30.27"   Gusts: NA
Location:  36.32°N, 90.6°W
Report Text: K4M9 191155Z AUTO 04008KT 5SM BR OVC041 02/01 A3027 RMK AO2
Loading
Personal Weather Stations






























Interactive Weather Map New forecast layout! Learn more

10-Day Weather Forecast

Advertisements
Track Severe Weather on mobile